createdAt,value
2022-12-23T00:02:12.941Z,27.40
2022-12-23T00:07:14.500Z,32.60
2022-12-23T00:12:34.849Z,26.30
2022-12-23T00:17:40.144Z,25.00
2022-12-23T00:23:00.378Z,23.80
2022-12-23T00:28:01.718Z,24.30
2022-12-23T00:33:03.209Z,25.30
2022-12-23T00:38:04.592Z,19.60
2022-12-23T00:43:05.886Z,20.00
2022-12-23T00:48:26.171Z,20.50
2022-12-23T00:53:27.481Z,16.90
2022-12-23T00:58:31.215Z,17.30
2022-12-23T01:03:51.155Z,17.40
2022-12-23T01:08:52.437Z,19.00
2022-12-23T01:13:53.987Z,16.30
2022-12-23T01:18:56.411Z,16.10
2022-12-23T01:23:57.628Z,16.60
2022-12-23T01:28:59.639Z,17.10
2022-12-23T01:34:00.964Z,15.70
2022-12-23T01:39:02.501Z,14.30
2022-12-23T01:44:42.419Z,12.60
2022-12-23T01:49:46.129Z,14.60
2022-12-23T01:54:47.716Z,13.40
2022-12-23T02:00:08.117Z,11.70
2022-12-23T02:05:09.397Z,13.30
2022-12-23T02:10:11.012Z,16.40
2022-12-23T02:15:36.841Z,13.60
2022-12-23T02:21:15.803Z,15.30
2022-12-23T02:26:54.938Z,12.60
2022-12-23T02:32:07.372Z,13.80
2022-12-23T02:37:30.001Z,13.90
2022-12-23T02:42:37.965Z,14.20
2022-12-23T02:47:54.337Z,13.70
2022-12-23T02:53:01.121Z,13.60
2022-12-23T02:58:07.562Z,13.60
2022-12-23T03:03:09.892Z,14.80
2022-12-23T03:08:32.690Z,16.40
2022-12-23T03:14:12.166Z,16.50
2022-12-23T03:19:31.742Z,17.20
2022-12-23T03:24:57.803Z,18.10
2022-12-23T03:30:04.503Z,19.50
2022-12-23T03:35:09.558Z,20.40
2022-12-23T03:40:18.785Z,20.80
2022-12-23T03:45:40.452Z,20.00
2022-12-23T03:50:43.525Z,21.40
2022-12-23T03:55:51.368Z,19.70
2022-12-23T04:01:01.096Z,22.70
2022-12-23T04:06:06.740Z,24.10
2022-12-23T04:11:08.141Z,21.40
2022-12-23T04:16:09.886Z,28.40
2022-12-23T04:21:11.163Z,21.40
2022-12-23T04:26:12.452Z,24.40
2022-12-23T04:31:13.866Z,23.30
2022-12-23T04:36:15.272Z,27.80
2022-12-23T04:41:16.549Z,23.60
2022-12-23T04:46:17.834Z,26.00
2022-12-23T04:51:19.227Z,25.80
2022-12-23T04:56:20.863Z,29.20
2022-12-23T05:01:22.219Z,30.30
2022-12-23T05:06:23.837Z,26.20
2022-12-23T05:11:25.400Z,27.60
2022-12-23T05:16:26.714Z,27.90
2022-12-23T05:21:28.182Z,28.40
2022-12-23T05:26:29.506Z,29.10
2022-12-23T05:31:31.727Z,24.50
2022-12-23T05:36:33.217Z,24.00
2022-12-23T05:41:34.471Z,24.20
2022-12-23T05:46:35.905Z,24.00
2022-12-23T05:51:37.203Z,19.00
2022-12-23T05:56:38.446Z,17.30
2022-12-23T06:01:39.871Z,24.20
2022-12-23T06:06:41.528Z,23.50
2022-12-23T06:11:42.810Z,19.70
2022-12-23T06:16:44.272Z,22.20
2022-12-23T06:21:45.507Z,20.80
2022-12-23T06:26:48.792Z,24.30
2022-12-23T06:31:53.418Z,22.60
2022-12-23T06:36:54.984Z,24.10
2022-12-23T06:41:56.250Z,21.90
2022-12-23T06:46:57.637Z,27.20
2022-12-23T06:51:58.971Z,22.10
2022-12-23T06:57:00.539Z,24.40
2022-12-23T07:02:02.920Z,22.10
2022-12-23T07:07:04.521Z,21.40
2022-12-23T07:12:06.015Z,17.40
2022-12-23T07:17:07.351Z,22.80
2022-12-23T07:22:09.726Z,17.80
2022-12-23T07:27:11.236Z,19.50
2022-12-23T07:32:12.607Z,22.40
2022-12-23T07:37:13.898Z,19.00
2022-12-23T07:47:36.409Z,18.60
2022-12-23T07:52:37.871Z,22.30
2022-12-23T07:57:39.981Z,21.20
2022-12-23T08:02:41.903Z,23.00
2022-12-23T08:07:49.020Z,26.30
2022-12-23T08:12:50.364Z,23.40
2022-12-23T08:17:51.588Z,21.90
2022-12-23T08:22:54.221Z,21.80
2022-12-23T08:27:55.616Z,21.00
2022-12-23T08:32:56.969Z,23.10
2022-12-23T08:37:58.244Z,22.30
2022-12-23T08:42:59.626Z,19.50
2022-12-23T08:48:02.583Z,21.40
2022-12-23T08:53:04.836Z,21.40
2022-12-23T08:58:07.502Z,17.50
2022-12-23T09:03:08.952Z,23.70
2022-12-23T09:08:10.492Z,21.90
2022-12-23T09:13:19.966Z,26.40
2022-12-23T09:18:26.388Z,22.90
2022-12-23T09:23:27.706Z,20.90
2022-12-23T09:28:28.968Z,21.20
2022-12-23T09:33:30.688Z,23.20
2022-12-23T09:38:33.659Z,25.50
2022-12-23T09:43:38.005Z,26.50
2022-12-23T09:48:46.952Z,21.50
2022-12-23T09:54:16.823Z,26.40
2022-12-23T09:59:27.340Z,28.00
2022-12-23T10:05:06.620Z,27.90
2022-12-23T10:10:24.888Z,29.60
2022-12-23T10:15:46.994Z,26.90
2022-12-23T10:21:06.717Z,25.80
2022-12-23T10:26:38.611Z,29.90
2022-12-23T10:32:30.971Z,24.90
2022-12-23T10:37:32.271Z,29.40
2022-12-23T10:42:38.031Z,22.60
2022-12-23T10:47:55.082Z,25.50
2022-12-23T10:53:00.836Z,25.60
2022-12-23T10:58:12.563Z,29.10
2022-12-23T11:03:26.662Z,26.40
2022-12-23T11:08:30.512Z,33.00
2022-12-23T11:13:41.201Z,23.10
2022-12-23T11:19:03.758Z,27.50
2022-12-23T11:24:09.353Z,29.20
2022-12-23T11:29:19.425Z,25.50
2022-12-23T11:34:27.911Z,20.40
2022-12-23T11:39:35.420Z,26.60
2022-12-23T11:44:44.604Z,25.10
2022-12-23T11:50:27.074Z,26.60
2022-12-23T11:55:32.157Z,24.80
2022-12-23T12:00:42.214Z,22.40
2022-12-23T12:05:55.499Z,26.70
2022-12-23T12:11:06.184Z,28.30
2022-12-23T12:16:29.767Z,25.20
2022-12-23T12:21:37.031Z,27.90
2022-12-23T12:26:41.945Z,26.40
2022-12-23T12:31:48.335Z,29.60
2022-12-23T12:37:12.996Z,27.80
2022-12-23T12:42:24.058Z,35.30
2022-12-23T12:47:53.923Z,35.40
2022-12-23T12:53:05.171Z,33.70
2022-12-23T12:58:18.515Z,32.70
2022-12-23T13:03:57.875Z,26.50
2022-12-23T13:09:08.443Z,31.20
2022-12-23T13:14:26.501Z,29.10
2022-12-23T13:19:46.653Z,28.50
2022-12-23T13:24:50.655Z,42.90
2022-12-23T13:30:01.260Z,46.60
2022-12-23T13:35:34.554Z,41.90
2022-12-23T13:41:03.710Z,31.60
2022-12-23T13:46:15.331Z,25.50
2022-12-23T13:51:29.977Z,34.00
2022-12-23T13:57:00.299Z,33.90
2022-12-23T14:02:01.707Z,33.50
2022-12-23T14:07:23.604Z,32.60
2022-12-23T14:12:37.594Z,30.00
2022-12-23T14:17:50.416Z,35.00
2022-12-23T14:23:20.675Z,35.80
2022-12-23T14:28:59.688Z,35.50
2022-12-23T14:34:31.361Z,34.50
2022-12-23T14:39:33.217Z,39.80
2022-12-23T14:44:34.488Z,41.30
2022-12-23T14:49:41.332Z,38.80
2022-12-23T14:55:00.192Z,36.50
2022-12-23T15:00:05.912Z,43.40
2022-12-23T15:05:07.926Z,33.20
2022-12-23T15:10:19.420Z,35.90
2022-12-23T15:15:27.519Z,40.60
2022-12-23T15:20:28.833Z,37.40
2022-12-23T15:25:38.593Z,30.70
2022-12-23T15:30:48.759Z,35.40
2022-12-23T15:35:50.914Z,32.20
2022-12-23T15:41:01.634Z,28.70
2022-12-23T15:46:13.463Z,30.60
2022-12-23T15:51:58.282Z,36.10
2022-12-23T15:56:53.559Z,30.30
2022-12-23T16:01:55.475Z,34.00
2022-12-23T16:06:57.295Z,29.70
2022-12-23T16:12:21.583Z,30.50
2022-12-23T16:17:43.258Z,30.60
2022-12-23T16:22:49.636Z,30.70
2022-12-23T16:27:58.087Z,31.10
2022-12-23T16:33:19.950Z,40.00
2022-12-23T16:38:25.773Z,41.70
2022-12-23T16:43:27.062Z,31.10
2022-12-23T16:48:47.061Z,37.80
2022-12-23T16:53:50.233Z,33.20
2022-12-23T16:58:51.750Z,51.50
2022-12-23T17:03:55.018Z,44.40
2022-12-23T17:08:56.391Z,61.50
2022-12-23T17:14:03.897Z,51.00
2022-12-23T17:19:06.543Z,48.70
2022-12-23T17:24:26.918Z,45.60
2022-12-23T17:29:28.471Z,51.10
2022-12-23T17:34:29.722Z,55.30
2022-12-23T17:39:30.983Z,53.60
2022-12-23T17:44:32.457Z,51.00
2022-12-23T17:49:33.763Z,42.90
2022-12-23T17:54:35.501Z,43.40
2022-12-23T17:59:36.948Z,43.00
2022-12-23T18:04:38.487Z,43.70
2022-12-23T18:09:39.926Z,48.00
2022-12-23T18:14:41.542Z,42.10
2022-12-23T18:19:42.784Z,41.20
2022-12-23T18:24:45.151Z,46.50
2022-12-23T18:29:47.947Z,31.40
2022-12-23T18:34:49.531Z,56.80
2022-12-23T18:39:50.827Z,44.70
2022-12-23T18:44:52.163Z,48.90
2022-12-23T18:49:54.555Z,42.80
2022-12-23T18:54:55.794Z,51.00
2022-12-23T18:59:57.150Z,39.70
2022-12-23T19:05:00.114Z,48.10
2022-12-23T19:10:04.594Z,45.00
2022-12-23T19:15:06.743Z,44.50
2022-12-23T19:20:11.787Z,43.50
2022-12-23T19:25:18.775Z,42.50
2022-12-23T19:30:20.378Z,43.70
2022-12-23T19:35:21.955Z,35.20
2022-12-23T19:40:23.227Z,47.30
2022-12-23T19:45:24.555Z,49.80
2022-12-23T19:50:27.081Z,36.10
2022-12-23T19:55:28.400Z,45.00
2022-12-23T20:00:29.627Z,44.70
2022-12-23T20:05:30.914Z,42.40
2022-12-23T20:10:32.131Z,41.90
2022-12-23T20:15:33.465Z,35.40
2022-12-23T20:20:36.146Z,37.10
2022-12-23T20:25:37.457Z,38.90
2022-12-23T20:30:39.177Z,38.00
2022-12-23T20:35:41.138Z,35.90
2022-12-23T20:40:42.421Z,34.30
2022-12-23T20:45:45.558Z,33.80
2022-12-23T20:50:47.987Z,36.10
2022-12-23T20:55:49.257Z,29.10
2022-12-23T21:00:51.600Z,29.00
2022-12-23T21:05:56.335Z,26.00
2022-12-23T21:10:57.735Z,26.30
2022-12-23T21:16:01.252Z,24.20
2022-12-23T21:21:04.502Z,22.20
2022-12-23T21:26:25.974Z,16.10
2022-12-23T21:31:29.698Z,13.80
2022-12-23T21:36:34.307Z,17.60
2022-12-23T21:41:38.017Z,13.00
2022-12-23T21:46:39.292Z,9.80
2022-12-23T21:51:41.725Z,7.70
2022-12-23T21:56:43.569Z,7.80
2022-12-23T22:01:45.316Z,9.90
2022-12-23T22:06:46.683Z,7.40
2022-12-23T22:11:48.143Z,9.60
2022-12-23T22:16:50.903Z,8.20
2022-12-23T22:21:52.290Z,6.80
2022-12-23T22:26:55.341Z,7.20
2022-12-23T22:31:56.625Z,7.90
2022-12-23T22:36:59.463Z,6.80
2022-12-23T22:42:00.736Z,8.30
2022-12-23T22:47:02.526Z,10.00
2022-12-23T22:52:04.091Z,6.20
2022-12-23T22:57:05.422Z,8.50
2022-12-23T23:02:06.704Z,7.90
2022-12-23T23:07:08.343Z,8.40
2022-12-23T23:12:09.562Z,8.60
2022-12-23T23:17:10.848Z,7.30
2022-12-23T23:22:12.178Z,5.70
2022-12-23T23:27:14.361Z,7.00
2022-12-23T23:32:15.703Z,7.40
2022-12-23T23:37:17.275Z,9.10
2022-12-23T23:42:18.599Z,7.80
2022-12-23T23:47:19.908Z,10.40
2022-12-23T23:52:21.211Z,6.00
2022-12-23T23:57:22.835Z,7.90
